createdAt,value
2018-09-19T00:00:19.090Z,0.00
2018-09-19T00:01:19.060Z,0.00
2018-09-19T00:02:19.051Z,0.00
2018-09-19T00:03:19.092Z,0.00
2018-09-19T00:04:19.027Z,0.00
2018-09-19T00:05:19.037Z,0.00
2018-09-19T00:06:19.006Z,0.00
2018-09-19T00:07:18.993Z,0.00
2018-09-19T00:08:18.983Z,0.00
2018-09-19T00:09:18.973Z,0.00
2018-09-19T00:10:18.963Z,0.00
2018-09-19T00:11:18.965Z,0.00
2018-09-19T00:12:18.948Z,0.00
2018-09-19T00:13:18.929Z,0.00
2018-09-19T00:14:18.921Z,0.00
2018-09-19T00:15:18.911Z,0.00
2018-09-19T00:16:18.935Z,0.00
2018-09-19T00:17:18.888Z,0.00
2018-09-19T00:18:18.889Z,0.00
2018-09-19T00:19:18.868Z,0.00
2018-09-19T00:20:18.957Z,0.00
2018-09-19T00:21:18.841Z,0.00
2018-09-19T00:22:18.853Z,0.00
2018-09-19T00:23:18.823Z,0.00
2018-09-19T00:24:18.829Z,0.00
2018-09-19T00:25:18.802Z,0.00
2018-09-19T00:26:18.793Z,0.00
2018-09-19T00:27:18.808Z,0.00
2018-09-19T00:28:18.768Z,0.00
2018-09-19T00:29:18.759Z,0.00
2018-09-19T00:30:18.748Z,0.00
2018-09-19T00:31:18.740Z,0.00
2018-09-19T00:32:18.740Z,0.00
2018-09-19T00:33:18.720Z,0.00
2018-09-19T00:34:18.705Z,0.00
2018-09-19T00:35:18.703Z,0.00
2018-09-19T00:36:18.686Z,0.00
2018-09-19T00:37:18.689Z,0.00
2018-09-19T00:38:18.664Z,0.00
2018-09-19T00:39:18.653Z,0.00
2018-09-19T00:40:18.660Z,0.00
2018-09-19T00:41:18.631Z,0.00
2018-09-19T00:42:18.633Z,0.00
2018-09-19T00:43:18.610Z,0.00
2018-09-19T00:44:18.600Z,0.00
2018-09-19T00:45:18.592Z,0.00
2018-09-19T00:46:18.582Z,0.00
2018-09-19T00:47:18.581Z,0.00
2018-09-19T00:48:18.559Z,0.00
2018-09-19T00:49:18.560Z,0.00
2018-09-19T00:50:18.535Z,0.00
2018-09-19T00:51:18.525Z,0.00
2018-09-19T00:52:18.514Z,0.00
2018-09-19T00:53:18.522Z,0.00
2018-09-19T00:54:18.511Z,0.00
2018-09-19T00:55:18.482Z,0.00
2018-09-19T00:56:18.475Z,0.00
2018-09-19T00:57:18.461Z,0.00
2018-09-19T00:58:18.453Z,0.00
2018-09-19T00:59:18.456Z,0.00
2018-09-19T01:00:18.437Z,0.00
2018-09-19T01:01:18.420Z,0.00
2018-09-19T01:02:18.424Z,0.00
2018-09-19T01:03:18.398Z,0.00
2018-09-19T01:04:18.384Z,0.00
2018-09-19T01:05:18.390Z,0.00
2018-09-19T01:06:18.381Z,0.00
2018-09-19T01:07:18.362Z,0.00
2018-09-19T01:08:18.340Z,0.00
2018-09-19T01:09:18.329Z,0.00
2018-09-19T01:10:18.323Z,0.00
2018-09-19T01:11:18.384Z,0.00
2018-09-19T01:12:18.298Z,0.00
2018-09-19T01:13:18.294Z,0.00
2018-09-19T01:14:18.279Z,0.00
2018-09-19T01:15:18.269Z,0.00
2018-09-19T01:16:18.282Z,0.00
2018-09-19T01:17:18.260Z,0.00
2018-09-19T01:18:18.233Z,0.00
2018-09-19T01:19:18.224Z,0.00
2018-09-19T01:20:18.215Z,0.00
2018-09-19T01:21:18.200Z,0.00
2018-09-19T01:22:18.202Z,0.00
2018-09-19T01:23:18.178Z,0.00
2018-09-19T01:24:18.183Z,0.00
2018-09-19T01:25:18.189Z,0.00
2018-09-19T01:26:18.143Z,0.00
2018-09-19T01:27:18.158Z,0.00
2018-09-19T01:28:18.128Z,0.00
2018-09-19T01:29:18.113Z,0.00
2018-09-19T01:30:18.100Z,0.00
2018-09-19T01:31:18.088Z,0.00
2018-09-19T01:32:18.148Z,0.00
2018-09-19T03:06:06.653Z,0.00
2018-09-19T03:07:06.400Z,0.00
2018-09-19T03:08:06.402Z,0.00
2018-09-19T03:09:06.378Z,0.00
2018-09-19T03:10:06.384Z,0.00
2018-09-19T03:11:06.352Z,0.00
2018-09-19T03:12:06.342Z,0.00
2018-09-19T03:13:06.348Z,0.00
2018-09-19T03:14:06.323Z,0.00
2018-09-19T03:15:06.311Z,0.00
2018-09-19T03:16:06.311Z,0.00
2018-09-19T03:17:06.395Z,0.00
2018-09-19T03:18:06.301Z,0.00
2018-09-19T03:19:06.279Z,0.00
2018-09-19T03:20:06.260Z,0.00
2018-09-19T03:21:06.261Z,0.00
2018-09-19T03:22:06.237Z,0.00
2018-09-19T03:23:06.229Z,0.00
2018-09-19T03:24:06.227Z,0.00
2018-09-19T03:25:06.203Z,0.00
2018-09-19T03:26:07.167Z,0.00
2018-09-19T03:27:06.182Z,0.00
2018-09-19T03:28:06.176Z,0.00
2018-09-19T03:29:06.158Z,0.00
2018-09-19T03:30:06.161Z,0.00
2018-09-19T03:31:06.140Z,0.00
2018-09-19T03:32:06.127Z,0.00
2018-09-19T03:33:06.114Z,0.00
2018-09-19T03:34:06.118Z,0.00
2018-09-19T03:35:06.093Z,0.00
2018-09-19T03:36:06.090Z,0.00
2018-09-19T03:37:06.084Z,0.00
2018-09-19T03:38:06.065Z,0.00
2018-09-19T03:39:06.062Z,0.00
2018-09-19T03:40:06.075Z,0.00
2018-09-19T03:41:06.024Z,0.00
2018-09-19T03:42:06.015Z,0.00
2018-09-19T03:43:06.006Z,0.00
2018-09-19T03:44:06.024Z,0.00
2018-09-19T03:45:05.980Z,0.00
2018-09-19T03:46:05.983Z,0.00
2018-09-19T03:47:05.959Z,0.00
2018-09-19T03:48:05.946Z,0.00
2018-09-19T03:49:05.939Z,0.00
2018-09-19T03:50:05.942Z,0.00
2018-09-19T03:51:05.918Z,0.00
2018-09-19T03:52:05.910Z,0.00
2018-09-19T03:53:05.897Z,0.00
2018-09-19T03:54:05.905Z,0.00
2018-09-19T03:55:05.873Z,0.00
2018-09-19T03:56:05.859Z,0.00
2018-09-19T03:57:05.849Z,0.00
2018-09-19T03:58:05.934Z,0.00
2018-09-19T03:59:05.829Z,0.00
2018-09-19T04:00:05.853Z,0.00
2018-09-19T04:01:05.807Z,0.00
2018-09-19T04:02:05.793Z,0.00
2018-09-19T04:03:05.782Z,0.00
2018-09-19T04:04:05.771Z,0.00
2018-09-19T04:05:05.770Z,0.00
2018-09-19T04:06:05.769Z,0.00
2018-09-19T04:07:05.736Z,0.00
2018-09-19T04:08:05.729Z,0.00
2018-09-19T04:09:05.719Z,0.00
2018-09-19T04:10:05.705Z,0.00
2018-09-19T04:11:05.709Z,0.00
2018-09-19T04:12:05.685Z,0.00
2018-09-19T04:13:05.676Z,0.00
2018-09-19T04:14:05.661Z,0.00
2018-09-19T04:15:05.661Z,0.00
2018-09-19T04:16:05.655Z,0.00
2018-09-19T04:17:05.629Z,0.00
2018-09-19T04:18:05.619Z,0.00
2018-09-19T04:19:05.604Z,0.00
2018-09-19T04:20:05.595Z,0.00
2018-09-19T04:21:05.581Z,0.00
2018-09-19T04:22:05.594Z,0.00
2018-09-19T04:23:05.572Z,0.00
2018-09-19T04:24:05.553Z,0.00
2018-09-19T04:25:05.544Z,0.00
2018-09-19T04:26:05.526Z,0.00
2018-09-19T04:27:05.531Z,0.00
2018-09-19T04:28:05.504Z,0.00
2018-09-19T04:29:05.505Z,0.00
2018-09-19T04:30:05.484Z,0.00
2018-09-19T04:31:05.479Z,0.00
2018-09-19T04:32:05.527Z,0.00
2018-09-19T04:33:05.452Z,0.00
2018-09-19T04:34:05.444Z,4.00
2018-09-19T04:35:05.431Z,4.00
2018-09-19T04:36:05.419Z,0.00
2018-09-19T04:37:05.405Z,4.00
2018-09-19T04:38:05.407Z,4.00
2018-09-19T04:39:05.393Z,4.00
2018-09-19T04:40:05.374Z,8.00
2018-09-19T04:41:05.377Z,8.00
2018-09-19T04:42:05.349Z,8.00
2018-09-19T04:43:05.353Z,12.00
2018-09-19T04:44:05.327Z,12.00
2018-09-19T04:45:05.368Z,16.00
2018-09-19T04:46:05.307Z,20.00
2018-09-19T04:47:05.337Z,20.00
2018-09-19T04:48:05.282Z,24.00
2018-09-19T04:49:05.273Z,32.00
2018-09-19T04:50:05.260Z,36.00
2018-09-19T04:51:05.249Z,40.00
2018-09-19T04:52:05.242Z,48.00
2018-09-19T04:53:05.245Z,52.00
2018-09-19T04:54:05.220Z,64.00
2018-09-19T04:55:05.209Z,72.00
2018-09-19T04:56:05.219Z,84.00
2018-09-19T04:57:05.192Z,96.00
2018-09-19T04:58:05.179Z,108.00
2018-09-19T04:59:05.168Z,124.00
2018-09-19T05:00:05.150Z,136.00
2018-09-19T05:01:05.143Z,160.00
2018-09-19T05:02:05.146Z,180.00
2018-09-19T05:03:05.118Z,208.00
2018-09-19T05:04:05.108Z,240.00
2018-09-19T05:05:05.117Z,268.00
2018-09-19T05:06:05.086Z,300.00
2018-09-19T05:07:05.089Z,336.00
2018-09-19T05:08:05.066Z,372.00
2018-09-19T05:09:05.055Z,416.00
2018-09-19T05:10:05.041Z,468.00
2018-09-19T05:11:05.031Z,524.00
2018-09-19T05:12:05.034Z,580.00
2018-09-19T05:13:05.013Z,636.00
2018-09-19T05:14:05.000Z,688.00
2018-09-19T05:15:04.988Z,744.00
2018-09-19T05:16:04.974Z,800.00
2018-09-19T05:17:04.985Z,860.00
2018-09-19T05:18:04.964Z,908.00
2018-09-19T05:19:04.941Z,952.00
2018-09-19T05:20:04.933Z,988.00
2018-09-19T05:21:04.927Z,1016.00
2018-09-19T05:22:04.929Z,1032.00
2018-09-19T05:23:04.898Z,1056.00
2018-09-19T05:24:04.903Z,1080.00
2018-09-19T05:25:04.875Z,1116.00
2018-09-19T05:26:04.867Z,1160.00
2018-09-19T05:27:04.855Z,1208.00
2018-09-19T05:28:04.858Z,1260.00
2018-09-19T05:29:04.836Z,1324.00
2018-09-19T05:30:04.821Z,1396.00
2018-09-19T05:31:04.811Z,1468.00
2018-09-19T05:32:04.797Z,1548.00
2018-09-19T05:33:04.802Z,1612.00
2018-09-19T05:34:04.778Z,1668.00
2018-09-19T05:35:04.765Z,1720.00
2018-09-19T05:36:04.755Z,1788.00
2018-09-19T05:37:04.746Z,1864.00
2018-09-19T05:38:04.746Z,1940.00
2018-09-19T05:39:04.725Z,2016.00
2018-09-19T05:40:04.716Z,2092.00
2018-09-19T05:41:04.725Z,2160.00
2018-09-19T05:42:04.693Z,2220.00
2018-09-19T05:43:04.681Z,2260.00
2018-09-19T05:44:04.674Z,2300.00
2018-09-19T05:45:04.661Z,2364.00
2018-09-19T05:46:04.653Z,2420.00
2018-09-19T05:47:04.652Z,2436.00
2018-09-19T05:48:04.660Z,2420.00
2018-09-19T05:49:04.615Z,2412.00
2018-09-19T05:50:04.606Z,2420.00
2018-09-19T05:51:04.598Z,2452.00
2018-09-19T05:52:04.599Z,2488.00
2018-09-19T05:53:04.572Z,2540.00
2018-09-19T05:54:04.561Z,2572.00
2018-09-19T05:55:04.553Z,2588.00
2018-09-19T05:56:04.541Z,2628.00
2018-09-19T05:57:04.543Z,2664.00
2018-09-19T05:58:04.524Z,2680.00
2018-09-19T05:59:04.510Z,2684.00
2018-09-19T06:00:04.500Z,2704.00
2018-09-19T06:01:04.489Z,2716.00
2018-09-19T06:02:04.494Z,2704.00
2018-09-19T06:03:04.468Z,2712.00
2018-09-19T06:04:04.462Z,2744.00
2018-09-19T06:05:04.481Z,2784.00
2018-09-19T06:06:04.465Z,2856.00
2018-09-19T06:07:04.426Z,2948.00
2018-09-19T06:08:04.418Z,3064.00
2018-09-19T06:09:04.403Z,3208.00
2018-09-19T06:10:04.393Z,3356.00
2018-09-19T06:11:04.393Z,3500.00
2018-09-19T06:12:04.386Z,3624.00
2018-09-19T06:13:04.388Z,3756.00
2018-09-19T06:14:04.435Z,3884.00
2018-09-19T06:15:04.339Z,3988.00
2018-09-19T06:16:04.336Z,4084.00
2018-09-19T06:17:04.327Z,4216.00
2018-09-19T06:18:04.309Z,4420.00
2018-09-19T06:19:04.312Z,4596.00
2018-09-19T06:20:04.330Z,4720.00
2018-09-19T06:21:04.274Z,4820.00
2018-09-19T06:22:04.279Z,4900.00
2018-09-19T06:23:04.254Z,4996.00
2018-09-19T06:24:04.243Z,5088.00
2018-09-19T06:25:04.237Z,5176.00
2018-09-19T06:26:04.221Z,5236.00
2018-09-19T06:27:04.286Z,5228.00
2018-09-19T06:28:04.216Z,5200.00
2018-09-19T06:29:04.216Z,5160.00
2018-09-19T06:30:04.184Z,5156.00
2018-09-19T06:31:04.171Z,5244.00
2018-09-19T06:32:04.155Z,5432.00
2018-09-19T06:33:04.257Z,5728.00
2018-09-19T06:34:04.135Z,6036.00
2018-09-19T06:35:04.243Z,6212.00
2018-09-19T06:36:04.113Z,6364.00
2018-09-19T06:37:04.119Z,6436.00
2018-09-19T06:38:04.103Z,6516.00
2018-09-19T06:39:04.084Z,6568.00
2018-09-19T06:40:04.137Z,6600.00
2018-09-19T06:41:04.203Z,6656.00
2018-09-19T06:42:04.044Z,6700.00
2018-09-19T06:43:04.057Z,6700.00
2018-09-19T06:44:04.027Z,6784.00
2018-09-19T06:45:04.048Z,6964.00
2018-09-19T06:46:04.009Z,7064.00
2018-09-19T06:47:04.012Z,7196.00
2018-09-19T06:48:03.984Z,7324.00
2018-09-19T06:49:03.964Z,7444.00
2018-09-19T06:50:03.988Z,7552.00
2018-09-19T06:51:03.958Z,7696.00
2018-09-19T06:52:03.973Z,7880.00
2018-09-19T06:53:03.921Z,8060.00
2018-09-19T06:54:03.913Z,8308.00
2018-09-19T06:55:03.953Z,9016.00
2018-09-19T06:56:03.924Z,11040.00
2018-09-19T06:57:03.878Z,11348.00
2018-09-19T06:58:03.868Z,11980.00
2018-09-19T06:59:03.858Z,14688.00
2018-09-19T07:00:03.842Z,14392.00
2018-09-19T07:01:03.833Z,15024.00
2018-09-19T07:02:03.835Z,15936.00
2018-09-19T07:03:03.809Z,12776.00
2018-09-19T07:04:03.806Z,11884.00
2018-09-19T07:05:03.810Z,16640.00
2018-09-19T07:06:03.798Z,17920.00
2018-09-19T07:07:03.803Z,17408.00
2018-09-19T07:08:03.755Z,19808.00
2018-09-19T07:09:03.742Z,20288.00
2018-09-19T07:10:03.733Z,20576.00
2018-09-19T07:11:03.720Z,21088.00
2018-09-19T07:12:03.728Z,21120.00
2018-09-19T07:13:03.700Z,21408.00
2018-09-19T07:14:03.689Z,21088.00
2018-09-19T07:15:03.677Z,21632.00
2018-09-19T07:16:03.674Z,21952.00
2018-09-19T07:17:03.663Z,22848.00
2018-09-19T07:18:03.662Z,23968.00
2018-09-19T07:19:03.758Z,23712.00
2018-09-19T07:20:03.627Z,23200.00
2018-09-19T07:21:03.631Z,24224.00
2018-09-19T07:22:03.604Z,24864.00
2018-09-19T07:23:03.615Z,24896.00
2018-09-19T07:24:03.626Z,23328.00
2018-09-19T07:25:03.612Z,22720.00
2018-09-19T07:26:03.561Z,24928.00
2018-09-19T07:27:03.548Z,25856.00
2018-09-19T07:28:03.536Z,26272.00
2018-09-19T07:29:03.538Z,26720.00
2018-09-19T07:30:03.513Z,26528.00
2018-09-19T07:31:03.518Z,27296.00
2018-09-19T07:32:03.505Z,28192.00
2018-09-19T07:33:03.482Z,28192.00
2018-09-19T07:34:03.506Z,29312.00
2018-09-19T07:35:03.460Z,28736.00
2018-09-19T07:36:03.447Z,26912.00
2018-09-19T07:37:03.468Z,27392.00
2018-09-19T07:38:03.427Z,28064.00
2018-09-19T07:39:03.429Z,29280.00
2018-09-19T07:40:03.429Z,31776.00
2018-09-19T07:41:03.394Z,32064.00
2018-09-19T07:42:03.385Z,31936.00
2018-09-19T07:43:03.384Z,33760.00
2018-09-19T07:44:03.408Z,34304.00
2018-09-19T07:45:03.368Z,34944.00
2018-09-19T07:46:03.337Z,36096.00
2018-09-19T07:47:03.330Z,36064.00
2018-09-19T07:48:03.317Z,35136.00
2018-09-19T07:49:03.334Z,36160.00
2018-09-19T07:50:03.299Z,36480.00
2018-09-19T07:51:03.303Z,37408.00
2018-09-19T07:52:03.277Z,37792.00
2018-09-19T07:53:03.268Z,37920.00
2018-09-19T07:54:03.257Z,39200.00
2018-09-19T07:55:03.265Z,39808.00
2018-09-19T07:56:03.234Z,40512.00
2018-09-19T07:57:03.219Z,41344.00
2018-09-19T07:58:03.209Z,40736.00
2018-09-19T07:59:03.201Z,40032.00
2018-09-19T08:00:03.201Z,38816.00
2018-09-19T08:01:03.258Z,40064.00
2018-09-19T08:02:03.164Z,41728.00
2018-09-19T08:03:03.155Z,41312.00
2018-09-19T08:04:03.160Z,41600.00
2018-09-19T08:05:03.148Z,40992.00
2018-09-19T08:06:03.120Z,41792.00
2018-09-19T08:07:03.126Z,44832.00
2018-09-19T08:08:03.102Z,46208.00
2018-09-19T08:09:03.103Z,43808.00
2018-09-19T08:10:03.079Z,45376.00
2018-09-19T08:11:03.080Z,45152.00
2018-09-19T08:12:03.073Z,46080.00
2018-09-19T08:13:03.046Z,46176.00
2018-09-19T08:14:03.041Z,45536.00
2018-09-19T08:15:03.039Z,46368.00
2018-09-19T08:16:03.024Z,45920.00
2018-09-19T08:17:03.126Z,46368.00
2018-09-19T08:18:03.009Z,47552.00
2018-09-19T08:19:03.011Z,46880.00
2018-09-19T08:20:02.971Z,46848.00
2018-09-19T08:21:02.973Z,45792.00
2018-09-19T08:22:02.971Z,45568.00
2018-09-19T08:23:02.942Z,46432.00
2018-09-19T08:24:02.926Z,46272.00
2018-09-19T08:25:02.960Z,46144.00
2018-09-19T08:26:02.908Z,46496.00
2018-09-19T08:27:02.912Z,46752.00
2018-09-19T08:28:02.887Z,46944.00
2018-09-19T08:29:02.882Z,46208.00
2018-09-19T08:30:02.867Z,43808.00
2018-09-19T08:31:02.849Z,43712.00
2018-09-19T08:32:02.862Z,44608.00
2018-09-19T08:33:02.832Z,45856.00
2018-09-19T08:34:02.828Z,46944.00
2018-09-19T08:35:02.812Z,48064.00
2018-09-19T08:36:02.802Z,47360.00
2018-09-19T08:37:02.790Z,47264.00
2018-09-19T08:38:02.789Z,47776.00
2018-09-19T08:39:02.801Z,48352.00
2018-09-19T08:40:02.755Z,48608.00
2018-09-19T08:41:02.745Z,49408.00
2018-09-19T08:42:02.736Z,49696.00
2018-09-19T08:43:02.723Z,48512.00
2018-09-19T08:44:02.721Z,49280.00
2018-09-19T08:45:02.719Z,48896.00
2018-09-19T08:46:02.689Z,47232.00
2018-09-19T08:47:02.685Z,45760.00
2018-09-19T08:48:02.670Z,48256.00
2018-09-19T08:49:02.677Z,44320.00
2018-09-19T08:50:02.691Z,47808.00
2018-09-19T08:51:02.639Z,52064.00
2018-09-19T08:52:02.631Z,51936.00
2018-09-19T08:53:02.623Z,51136.00
2018-09-19T08:54:02.607Z,53344.00
2018-09-19T08:55:02.611Z,50912.00
2018-09-19T08:56:02.584Z,48896.00
2018-09-19T08:57:02.607Z,51488.00
2018-09-19T08:58:02.564Z,52288.00
2018-09-19T08:59:02.552Z,52608.00
2018-09-19T09:00:02.557Z,53696.00
2018-09-19T09:01:02.531Z,53664.00
2018-09-19T09:02:02.538Z,55360.00
2018-09-19T09:03:02.509Z,54592.00
2018-09-19T09:04:02.499Z,56896.00
2018-09-19T09:05:02.515Z,57408.00
2018-09-19T09:06:02.479Z,56256.00
2018-09-19T09:07:02.485Z,55264.00
2018-09-19T09:08:02.458Z,56288.00
2018-09-19T09:09:02.481Z,56288.00
2018-09-19T09:10:02.455Z,58720.00
2018-09-19T09:11:02.504Z,60800.00
2018-09-19T09:12:02.480Z,59680.00
2018-09-19T09:13:02.422Z,59104.00
2018-09-19T09:14:02.398Z,60768.00
2018-09-19T09:15:02.383Z,60256.00
2018-09-19T09:16:02.375Z,60544.00
2018-09-19T09:17:02.389Z,60544.00
2018-09-19T09:18:02.353Z,59808.00
2018-09-19T09:19:02.345Z,59328.00
2018-09-19T09:20:02.389Z,59456.00
2018-09-19T09:21:02.325Z,60128.00
2018-09-19T09:22:02.311Z,60480.00
2018-09-19T09:23:02.311Z,60352.00
2018-09-19T09:24:02.292Z,59424.00
2018-09-19T09:25:02.279Z,59616.00
2018-09-19T09:26:02.327Z,59168.00
2018-09-19T09:27:02.510Z,61312.00
2018-09-19T09:28:02.246Z,63072.00
2018-09-19T09:29:02.274Z,63328.00
2018-09-19T09:30:02.230Z,60256.00
2018-09-19T09:31:02.278Z,58560.00
2018-09-19T09:32:02.301Z,60128.00
2018-09-19T09:33:02.196Z,62720.00
2018-09-19T09:34:02.223Z,65504.00
2018-09-19T09:35:02.189Z,65824.00
2018-09-19T09:36:02.160Z,62752.00
2018-09-19T09:37:02.195Z,63968.00
2018-09-19T09:38:02.162Z,67264.00
2018-09-19T09:39:02.136Z,67040.00
2018-09-19T09:40:02.123Z,64736.00
2018-09-19T09:41:02.112Z,67648.00
2018-09-19T09:42:02.100Z,68704.00
2018-09-19T09:43:02.104Z,67744.00
2018-09-19T09:44:02.080Z,66848.00
2018-09-19T09:45:02.091Z,66784.00
2018-09-19T09:46:02.084Z,66496.00
2018-09-19T09:47:02.051Z,68192.00
2018-09-19T09:48:02.060Z,67744.00
2018-09-19T09:49:02.036Z,67616.00
2018-09-19T09:50:02.077Z,67232.00
2018-09-19T09:51:02.022Z,67680.00
2018-09-19T09:52:01.997Z,67328.00
2018-09-19T09:53:01.987Z,68896.00
2018-09-19T09:54:01.998Z,70272.00
2018-09-19T09:55:02.013Z,67392.00
2018-09-19T09:56:01.956Z,66720.00
2018-09-19T09:57:01.944Z,69184.00
2018-09-19T09:58:01.937Z,69920.00
2018-09-19T09:59:01.926Z,68800.00
2018-09-19T10:00:01.958Z,68416.00
2018-09-19T10:01:01.953Z,69472.00
2018-09-19T10:02:01.959Z,68384.00
2018-09-19T10:03:01.887Z,68320.00
2018-09-19T10:04:01.874Z,68672.00
2018-09-19T10:05:01.862Z,70560.00
2018-09-19T10:06:01.874Z,70432.00
2018-09-19T10:07:01.842Z,69632.00
2018-09-19T10:08:01.834Z,67520.00
2018-09-19T10:09:01.824Z,64896.00
2018-09-19T10:10:01.823Z,62272.00
2018-09-19T10:11:01.805Z,61888.00
2018-09-19T10:12:01.815Z,61696.00
2018-09-19T10:13:01.781Z,63072.00
2018-09-19T10:14:01.810Z,63712.00
2018-09-19T10:15:01.764Z,62816.00
2018-09-19T10:16:01.765Z,61856.00
2018-09-19T10:17:01.736Z,62432.00
2018-09-19T10:18:01.774Z,64832.00
2018-09-19T10:19:01.732Z,65664.00
2018-09-19T10:20:01.707Z,67040.00
2018-09-19T10:21:01.832Z,68992.00
2018-09-19T10:22:01.698Z,69504.00
2018-09-19T10:23:01.720Z,70272.00
2018-09-19T10:24:01.665Z,70816.00
2018-09-19T10:25:01.669Z,74336.00
2018-09-19T10:26:01.647Z,75872.00
2018-09-19T10:27:01.639Z,61856.00
2018-09-19T10:28:01.637Z,57024.00
2018-09-19T10:29:01.677Z,59424.00
2018-09-19T10:30:01.622Z,62112.00
2018-09-19T10:31:01.596Z,59264.00
2018-09-19T10:32:01.584Z,59744.00
2018-09-19T10:33:01.569Z,63232.00
2018-09-19T10:34:01.593Z,62112.00
2018-09-19T10:35:01.579Z,69440.00
2018-09-19T10:36:01.544Z,70848.00
2018-09-19T10:37:01.532Z,71328.00
2018-09-19T10:38:01.532Z,71040.00
2018-09-19T10:39:01.509Z,29856.00
2018-09-19T10:40:01.606Z,46176.00
2018-09-19T10:41:01.489Z,71616.00
2018-09-19T10:42:01.479Z,69120.00
2018-09-19T10:43:01.465Z,53216.00
2018-09-19T10:44:01.516Z,69824.00
2018-09-19T10:45:01.460Z,73120.00
2018-09-19T10:46:01.501Z,76256.00
2018-09-19T10:47:01.461Z,76928.00
2018-09-19T10:48:01.435Z,45952.00
2018-09-19T10:49:01.499Z,72032.00
2018-09-19T10:50:01.395Z,75552.00
2018-09-19T10:51:01.395Z,78176.00
2018-09-19T10:52:01.372Z,76512.00
2018-09-19T10:53:01.362Z,73440.00
2018-09-19T10:54:01.379Z,25664.00
2018-09-19T10:55:01.344Z,78912.00
2018-09-19T10:56:01.374Z,77344.00
2018-09-19T10:57:01.373Z,75328.00
2018-09-19T10:58:01.313Z,76640.00
2018-09-19T10:59:01.301Z,77536.00
2018-09-19T11:00:01.309Z,75008.00
2018-09-19T11:01:01.281Z,72416.00
2018-09-19T11:02:01.282Z,75392.00
2018-09-19T11:03:01.259Z,74560.00
2018-09-19T11:04:01.254Z,79072.00
2018-09-19T11:05:02.020Z,80704.00
2018-09-19T11:06:01.226Z,78624.00
2018-09-19T11:07:01.392Z,77472.00
2018-09-19T11:08:01.206Z,76384.00
2018-09-19T11:09:01.195Z,76224.00
2018-09-19T11:10:01.188Z,77216.00
2018-09-19T11:11:01.201Z,80192.00
2018-09-19T11:12:01.168Z,81024.00
2018-09-19T11:13:01.155Z,82272.00
2018-09-19T11:14:01.146Z,84704.00
2018-09-19T11:15:01.133Z,85152.00
2018-09-19T11:16:01.122Z,87296.00
2018-09-19T11:17:01.137Z,80256.00
2018-09-19T11:18:01.129Z,80064.00
2018-09-19T11:19:01.093Z,79584.00
2018-09-19T11:20:01.081Z,79072.00
2018-09-19T11:21:01.069Z,78560.00
2018-09-19T11:22:01.059Z,78048.00
2018-09-19T11:23:01.054Z,78368.00
2018-09-19T11:24:01.156Z,82400.00
2018-09-19T11:25:01.077Z,83776.00
2018-09-19T11:26:01.018Z,29792.00
2018-09-19T11:27:01.008Z,81600.00
2018-09-19T11:28:00.999Z,71200.00
2018-09-19T11:29:00.987Z,91232.00
2018-09-19T11:30:00.989Z,25504.00
2018-09-19T11:31:00.968Z,19840.00
2018-09-19T11:32:00.959Z,19520.00
2018-09-19T11:33:00.958Z,88768.00
2018-09-19T11:34:00.937Z,45056.00
2018-09-19T11:35:00.945Z,25056.00
2018-09-19T11:36:00.916Z,87040.00
2018-09-19T11:37:00.918Z,88736.00
2018-09-19T11:38:00.948Z,29984.00
2018-09-19T11:39:00.902Z,24288.00
2018-09-19T11:40:00.876Z,21760.00
2018-09-19T11:41:00.862Z,22336.00
2018-09-19T11:42:00.856Z,28256.00
2018-09-19T11:43:00.843Z,24352.00
2018-09-19T11:44:00.851Z,24384.00
2018-09-19T11:45:00.830Z,23424.00
2018-09-19T11:46:00.814Z,22592.00
2018-09-19T11:47:00.801Z,22976.00
2018-09-19T11:48:00.792Z,20736.00
2018-09-19T11:49:00.779Z,18112.00
2018-09-19T11:50:00.789Z,15964.00
2018-09-19T11:51:00.757Z,19200.00
2018-09-19T11:52:00.766Z,88640.00
2018-09-19T11:53:00.737Z,22720.00
2018-09-19T11:54:00.728Z,66944.00
2018-09-19T11:55:00.732Z,20960.00
2018-09-19T11:56:00.785Z,19168.00
2018-09-19T11:57:00.693Z,17220.00
2018-09-19T11:58:00.735Z,20864.00
2018-09-19T11:59:00.693Z,20512.00
2018-09-19T12:00:00.698Z,21248.00
2018-09-19T12:01:00.664Z,23392.00
2018-09-19T12:02:00.660Z,82688.00
2018-09-19T12:03:00.627Z,78560.00
2018-09-19T12:04:00.622Z,86880.00
2018-09-19T12:05:00.613Z,86016.00
2018-09-19T12:06:00.610Z,83232.00
2018-09-19T12:07:00.589Z,82688.00
2018-09-19T12:08:00.579Z,84896.00
2018-09-19T12:09:00.564Z,86976.00
2018-09-19T12:10:00.562Z,84032.00
2018-09-19T12:11:00.586Z,87232.00
2018-09-19T12:12:00.532Z,86912.00
2018-09-19T12:13:00.539Z,85440.00
2018-09-19T12:14:00.516Z,84672.00
2018-09-19T12:15:00.502Z,90688.00
2018-09-19T12:16:00.495Z,86016.00
2018-09-19T12:17:00.525Z,79648.00
2018-09-19T12:18:00.476Z,79488.00
2018-09-19T12:19:00.460Z,37504.00
2018-09-19T12:20:00.450Z,48768.00
2018-09-19T12:21:00.456Z,30400.00
2018-09-19T12:22:00.431Z,26112.00
2018-09-19T12:23:00.452Z,25056.00
2018-09-19T12:24:00.413Z,20992.00
2018-09-19T12:25:00.398Z,25920.00
2018-09-19T12:26:00.408Z,27872.00
2018-09-19T12:27:00.423Z,43936.00
2018-09-19T12:28:00.366Z,23456.00
2018-09-19T12:29:00.374Z,78784.00
2018-09-19T12:30:00.352Z,40448.00
2018-09-19T12:31:00.339Z,25248.00
2018-09-19T12:32:00.325Z,31936.00
2018-09-19T12:33:00.324Z,76544.00
2018-09-19T12:34:00.311Z,79616.00
2018-09-19T12:35:00.297Z,75168.00
2018-09-19T12:36:00.309Z,71584.00
2018-09-19T12:37:00.275Z,72864.00
2018-09-19T12:38:00.358Z,68832.00
2018-09-19T12:39:00.261Z,69504.00
2018-09-19T12:40:00.246Z,69920.00
2018-09-19T12:41:00.231Z,72192.00
2018-09-19T12:42:00.221Z,70752.00
2018-09-19T12:43:00.272Z,65664.00
2018-09-19T12:44:00.201Z,64736.00
2018-09-19T12:45:00.189Z,62624.00
2018-09-19T12:46:00.182Z,68192.00
2018-09-19T12:47:00.182Z,65408.00
2018-09-19T12:48:00.177Z,68224.00
2018-09-19T12:49:00.167Z,70752.00
2018-09-19T12:50:00.244Z,59936.00
2018-09-19T12:51:00.126Z,68032.00
2018-09-19T12:52:00.124Z,70272.00
2018-09-19T12:53:00.106Z,70112.00
2018-09-19T12:54:00.110Z,69088.00
2018-09-19T12:55:00.105Z,69568.00
2018-09-19T12:56:00.076Z,69440.00
2018-09-19T12:57:00.066Z,70816.00
2018-09-19T12:58:00.053Z,66336.00
2018-09-19T12:59:00.045Z,69440.00
2018-09-19T13:00:00.036Z,70464.00
2018-09-19T13:01:00.061Z,69280.00
2018-09-19T13:02:00.013Z,67200.00
2018-09-19T13:03:00.004Z,66496.00
2018-09-19T13:03:59.995Z,68576.00
2018-09-19T13:04:59.984Z,67392.00
2018-09-19T13:05:59.984Z,64768.00
2018-09-19T13:06:59.975Z,63520.00
2018-09-19T13:07:59.954Z,61472.00
2018-09-19T13:08:59.945Z,62912.00
2018-09-19T13:09:59.968Z,63104.00
2018-09-19T13:10:59.923Z,67776.00
2018-09-19T13:11:59.909Z,67488.00
2018-09-19T13:12:59.939Z,66496.00
2018-09-19T13:13:59.889Z,65056.00
2018-09-19T13:14:59.878Z,63872.00
2018-09-19T13:15:59.885Z,63040.00
2018-09-19T13:16:59.870Z,45184.00
2018-09-19T13:17:59.854Z,62528.00
2018-09-19T13:18:59.838Z,64416.00
2018-09-19T13:19:59.826Z,44096.00
2018-09-19T13:20:59.830Z,47808.00
2018-09-19T13:21:59.810Z,23520.00
2018-09-19T13:22:59.797Z,20000.00
2018-09-19T13:23:59.785Z,22560.00
2018-09-19T13:24:59.810Z,19712.00
2018-09-19T13:25:59.777Z,20416.00
2018-09-19T13:26:59.770Z,16480.00
2018-09-19T13:27:59.744Z,18560.00
2018-09-19T13:28:59.793Z,22720.00
2018-09-19T13:29:59.724Z,21568.00
2018-09-19T13:30:59.713Z,25312.00
2018-09-19T13:31:59.722Z,23040.00
2018-09-19T13:32:59.690Z,57856.00
2018-09-19T13:33:59.683Z,56832.00
2018-09-19T13:34:59.735Z,63168.00
2018-09-19T13:35:59.678Z,22720.00
2018-09-19T13:36:59.647Z,21312.00
2018-09-19T13:37:59.647Z,20416.00
2018-09-19T13:38:59.629Z,35712.00
2018-09-19T13:39:59.617Z,21504.00
2018-09-19T13:40:59.606Z,28192.00
2018-09-19T13:41:59.595Z,61024.00
2018-09-19T13:42:59.611Z,23360.00
2018-09-19T13:43:59.577Z,51392.00
2018-09-19T13:44:59.567Z,60800.00